sensor_id;sensor_type;location;lat;lon;timestamp;pressure;altitude;pressure_sealevel;temperature;humidity
56142;BME280;42018;48.588;10.836;2023-05-25T00:02:08;97095.59;;;12.77;54.87
56142;BME280;42018;48.588;10.836;2023-05-25T00:04:54;97096.94;;;12.74;55.29
56142;BME280;42018;48.588;10.836;2023-05-25T00:07:42;97087.66;;;12.66;54.58
56142;BME280;42018;48.588;10.836;2023-05-25T00:10:30;97086.63;;;12.37;54.82
56142;BME280;42018;48.588;10.836;2023-05-25T00:13:16;97089.56;;;12.25;55.40
56142;BME280;42018;48.588;10.836;2023-05-25T00:16:01;97093.81;;;12.31;55.50
56142;BME280;42018;48.588;10.836;2023-05-25T00:18:47;97089.03;;;12.38;55.32
56142;BME280;42018;48.588;10.836;2023-05-25T00:21:32;97089.28;;;12.37;55.88
56142;BME280;42018;48.588;10.836;2023-05-25T00:24:18;97083.44;;;12.40;56.10
56142;BME280;42018;48.588;10.836;2023-05-25T00:27:04;97088.22;;;12.43;55.75
56142;BME280;42018;48.588;10.836;2023-05-25T00:29:51;97090.34;;;12.46;56.03
56142;BME280;42018;48.588;10.836;2023-05-25T00:32:37;97085.56;;;12.53;55.25
56142;BME280;42018;48.588;10.836;2023-05-25T00:35:27;97080.00;;;12.39;55.73
56142;BME280;42018;48.588;10.836;2023-05-25T00:38:16;97080.78;;;12.50;55.43
56142;BME280;42018;48.588;10.836;2023-05-25T00:41:02;97075.47;;;12.50;55.89
56142;BME280;42018;48.588;10.836;2023-05-25T00:43:47;97083.97;;;12.47;54.82
56142;BME280;42018;48.588;10.836;2023-05-25T00:46:33;97079.72;;;12.36;55.86
56142;BME280;42018;48.588;10.836;2023-05-25T00:49:20;97083.94;;;12.52;55.63
56142;BME280;42018;48.588;10.836;2023-05-25T00:52:10;97084.50;;;12.59;55.10
56142;BME280;42018;48.588;10.836;2023-05-25T00:54:59;97078.34;;;12.64;55.57
56142;BME280;42018;48.588;10.836;2023-05-25T00:57:48;97087.41;;;12.63;54.90
56142;BME280;42018;48.588;10.836;2023-05-25T01:00:36;97092.16;;;12.66;54.88
56142;BME280;42018;48.588;10.836;2023-05-25T01:03:30;97094.56;;;12.67;54.69
56142;BME280;42018;48.588;10.836;2023-05-25T01:06:22;97100.41;;;12.64;55.33
56142;BME280;42018;48.588;10.836;2023-05-25T01:09:10;97097.78;;;12.59;54.57
56142;BME280;42018;48.588;10.836;2023-05-25T01:11:58;97099.59;;;12.69;54.39
56142;BME280;42018;48.588;10.836;2023-05-25T01:14:46;97097.47;;;12.71;54.58
56142;BME280;42018;48.588;10.836;2023-05-25T01:17:34;97100.66;;;12.73;54.58
56142;BME280;42018;48.588;10.836;2023-05-25T01:20:22;97103.31;;;12.73;54.32
56142;BME280;42018;48.588;10.836;2023-05-25T01:23:10;97099.34;;;12.70;54.73
56142;BME280;42018;48.588;10.836;2023-05-25T01:25:59;97099.88;;;12.62;55.18
56142;BME280;42018;48.588;10.836;2023-05-25T01:28:50;97094.31;;;12.64;55.37
56142;BME280;42018;48.588;10.836;2023-05-25T01:31:38;97089.25;;;12.67;55.16
56142;BME280;42018;48.588;10.836;2023-05-25T01:34:24;97091.09;;;12.62;55.23
56142;BME280;42018;48.588;10.836;2023-05-25T01:37:13;97092.97;;;12.66;55.31
56142;BME280;42018;48.588;10.836;2023-05-25T01:40:02;97082.09;;;12.58;55.54
56142;BME280;42018;48.588;10.836;2023-05-25T01:42:48;97078.84;;;12.76;55.45
56142;BME280;42018;48.588;10.836;2023-05-25T01:45:34;97080.97;;;12.69;55.51
56142;BME280;42018;48.588;10.836;2023-05-25T01:51:20;97079.44;;;12.53;55.57
56142;BME280;42018;48.588;10.836;2023-05-25T01:54:17;97092.22;;;12.25;56.06
56142;BME280;42018;48.588;10.836;2023-05-25T01:57:06;97088.47;;;12.41;56.20
56142;BME280;42018;48.588;10.836;2023-05-25T01:59:55;97089.56;;;12.35;56.19
56142;BME280;42018;48.588;10.836;2023-05-25T02:02:47;97087.69;;;12.31;57.01
56142;BME280;42018;48.588;10.836;2023-05-25T02:05:35;97088.25;;;12.22;56.90
56142;BME280;42018;48.588;10.836;2023-05-25T02:08:23;97091.69;;;12.13;57.08
56142;BME280;42018;48.588;10.836;2023-05-25T02:11:12;97089.56;;;12.05;57.89
56142;BME280;42018;48.588;10.836;2023-05-25T02:13:58;97088.50;;;12.06;58.34
56142;BME280;42018;48.588;10.836;2023-05-25T02:16:44;97082.13;;;12.22;57.83
56142;BME280;42018;48.588;10.836;2023-05-25T02:19:33;97078.94;;;12.15;58.15
56142;BME280;42018;48.588;10.836;2023-05-25T02:22:20;97073.63;;;12.15;58.30
56142;BME280;42018;48.588;10.836;2023-05-25T02:25:06;97074.13;;;12.37;57.37
56142;BME280;42018;48.588;10.836;2023-05-25T02:27:53;97077.88;;;12.26;57.70
56142;BME280;42018;48.588;10.836;2023-05-25T02:30:41;97076.56;;;12.29;57.83
56142;BME280;42018;48.588;10.836;2023-05-25T02:33:27;97080.03;;;12.24;58.18
56142;BME280;42018;48.588;10.836;2023-05-25T02:36:13;97081.06;;;12.23;58.32
56142;BME280;42018;48.588;10.836;2023-05-25T02:38:58;97075.47;;;12.30;58.58
56142;BME280;42018;48.588;10.836;2023-05-25T02:41:44;97084.78;;;12.32;58.88
56142;BME280;42018;48.588;10.836;2023-05-25T02:44:30;97087.69;;;12.31;58.73
56142;BME280;42018;48.588;10.836;2023-05-25T02:47:16;97087.16;;;12.34;58.99
56142;BME280;42018;48.588;10.836;2023-05-25T02:50:03;97085.81;;;12.52;57.99
56142;BME280;42018;48.588;10.836;2023-05-25T02:52:49;97083.72;;;12.38;58.60
56142;BME280;42018;48.588;10.836;2023-05-25T02:55:34;97085.28;;;12.44;58.27
56142;BME280;42018;48.588;10.836;2023-05-25T02:58:22;97084.22;;;12.51;58.27
56142;BME280;42018;48.588;10.836;2023-05-25T03:01:07;97094.06;;;12.50;58.29
56142;BME280;42018;48.588;10.836;2023-05-25T03:03:55;97097.53;;;12.45;58.43
56142;BME280;42018;48.588;10.836;2023-05-25T03:06:40;97090.09;;;12.42;58.71
56142;BME280;42018;48.588;10.836;2023-05-25T03:09:26;97093.81;;;12.46;58.40
56142;BME280;42018;48.588;10.836;2023-05-25T03:12:11;97097.81;;;12.39;59.23
56142;BME280;42018;48.588;10.836;2023-05-25T03:14:57;97104.44;;;12.36;58.54
56142;BME280;42018;48.588;10.836;2023-05-25T03:17:43;97096.72;;;12.45;58.47
56142;BME280;42018;48.588;10.836;2023-05-25T03:20:29;97103.63;;;12.51;58.41
56142;BME280;42018;48.588;10.836;2023-05-25T03:23:15;97101.75;;;12.57;58.03
56142;BME280;42018;48.588;10.836;2023-05-25T03:26:00;97103.38;;;12.37;58.59
56142;BME280;42018;48.588;10.836;2023-05-25T03:28:46;97111.09;;;12.29;58.84
56142;BME280;42018;48.588;10.836;2023-05-25T03:31:32;97107.63;;;12.23;59.30
56142;BME280;42018;48.588;10.836;2023-05-25T03:34:17;97110.28;;;12.13;59.50
56142;BME280;42018;48.588;10.836;2023-05-25T03:37:03;97104.47;;;12.11;59.85
56142;BME280;42018;48.588;10.836;2023-05-25T03:39:49;97103.66;;;12.15;59.69
56142;BME280;42018;48.588;10.836;2023-05-25T03:42:34;97108.97;;;12.05;59.79
56142;BME280;42018;48.588;10.836;2023-05-25T03:45:20;97106.84;;;12.07;59.97
56142;BME280;42018;48.588;10.836;2023-05-25T03:48:05;97108.44;;;12.08;60.58
56142;BME280;42018;48.588;10.836;2023-05-25T03:50:51;97107.38;;;12.04;60.79
56142;BME280;42018;48.588;10.836;2023-05-25T03:53:36;97119.56;;;11.90;61.51
56142;BME280;42018;48.588;10.836;2023-05-25T03:56:22;97114.53;;;11.98;61.56
56142;BME280;42018;48.588;10.836;2023-05-25T03:59:08;97108.16;;;11.94;61.52
56142;BME280;42018;48.588;10.836;2023-05-25T04:01:56;97112.44;;;11.95;61.57
56142;BME280;42018;48.588;10.836;2023-05-25T04:04:41;97116.69;;;12.07;61.29
56142;BME280;42018;48.588;10.836;2023-05-25T04:07:28;97114.53;;;12.09;61.57
56142;BME280;42018;48.588;10.836;2023-05-25T04:10:15;97115.88;;;12.21;61.44
56142;BME280;42018;48.588;10.836;2023-05-25T04:13:00;97115.34;;;12.25;61.39
56142;BME280;42018;48.588;10.836;2023-05-25T04:15:46;97112.41;;;12.26;61.95
56142;BME280;42018;48.588;10.836;2023-05-25T04:18:32;97123.59;;;12.28;61.55
56142;BME280;42018;48.588;10.836;2023-05-25T04:21:18;97114.28;;;12.26;61.40
56142;BME280;42018;48.588;10.836;2023-05-25T04:24:03;97115.84;;;12.16;62.03
56142;BME280;42018;48.588;10.836;2023-05-25T04:26:49;97121.19;;;12.11;61.97
56142;BME280;42018;48.588;10.836;2023-05-25T04:29:35;97120.41;;;12.31;61.73
56142;BME280;42018;48.588;10.836;2023-05-25T04:32:21;97124.09;;;12.30;61.73
56142;BME280;42018;48.588;10.836;2023-05-25T04:35:08;97121.69;;;12.23;62.25
56142;BME280;42018;48.588;10.836;2023-05-25T04:37:53;97126.50;;;12.42;61.67
56142;BME280;42018;48.588;10.836;2023-05-25T04:40:40;97130.72;;;12.48;61.31
56142;BME280;42018;48.588;10.836;2023-05-25T04:43:26;97134.44;;;12.52;61.40
56142;BME280;42018;48.588;10.836;2023-05-25T04:46:13;97131.78;;;12.57;60.95
56142;BME280;42018;48.588;10.836;2023-05-25T04:49:01;97136.31;;;12.67;60.91
56142;BME280;42018;48.588;10.836;2023-05-25T04:51:46;97131.75;;;12.73;60.95
56142;BME280;42018;48.588;10.836;2023-05-25T04:54:33;97126.69;;;12.81;60.65
56142;BME280;42018;48.588;10.836;2023-05-25T04:57:18;97128.25;;;12.87;60.82
56142;BME280;42018;48.588;10.836;2023-05-25T05:02:39;97127.69;;;13.06;60.35
56142;BME280;42018;48.588;10.836;2023-05-25T05:05:25;97123.47;;;13.00;59.83
56142;BME280;42018;48.588;10.836;2023-05-25T05:08:11;97125.84;;;12.96;59.89
56142;BME280;42018;48.588;10.836;2023-05-25T05:10:58;97117.34;;;12.99;60.10
56142;BME280;42018;48.588;10.836;2023-05-25T05:13:46;97124.25;;;13.00;60.12
56142;BME280;42018;48.588;10.836;2023-05-25T05:16:31;97125.03;;;13.06;60.06
56142;BME280;42018;48.588;10.836;2023-05-25T05:19:19;97127.13;;;13.09;60.59
56142;BME280;42018;48.588;10.836;2023-05-25T05:22:04;97129.78;;;13.14;60.63
56142;BME280;42018;48.588;10.836;2023-05-25T05:24:50;97135.88;;;13.30;60.77
56142;BME280;42018;48.588;10.836;2023-05-25T05:27:35;97137.69;;;13.39;60.03
56142;BME280;42018;48.588;10.836;2023-05-25T05:30:21;97139.31;;;13.35;60.26
56142;BME280;42018;48.588;10.836;2023-05-25T05:33:07;97146.25;;;13.31;60.44
56142;BME280;42018;48.588;10.836;2023-05-25T05:35:52;97150.78;;;13.26;60.52
56142;BME280;42018;48.588;10.836;2023-05-25T05:38:38;97156.91;;;13.21;60.92
56142;BME280;42018;48.588;10.836;2023-05-25T05:41:27;97154.78;;;13.18;61.44
56142;BME280;42018;48.588;10.836;2023-05-25T05:44:19;97152.09;;;13.23;61.08
56142;BME280;42018;48.588;10.836;2023-05-25T05:47:05;97155.88;;;13.07;61.87
56142;BME280;42018;48.588;10.836;2023-05-25T05:49:50;97150.28;;;13.08;62.07
56142;BME280;42018;48.588;10.836;2023-05-25T05:52:39;97155.03;;;13.27;61.74
56142;BME280;42018;48.588;10.836;2023-05-25T05:55:24;97155.31;;;13.25;61.97
56142;BME280;42018;48.588;10.836;2023-05-25T05:58:10;97162.19;;;13.41;61.44
56142;BME280;42018;48.588;10.836;2023-05-25T06:00:57;97156.91;;;13.31;61.61
56142;BME280;42018;48.588;10.836;2023-05-25T06:03:44;97165.97;;;13.25;61.92
56142;BME280;42018;48.588;10.836;2023-05-25T06:06:32;97163.28;;;13.30;62.32
56142;BME280;42018;48.588;10.836;2023-05-25T06:09:21;97163.53;;;13.34;62.44
56142;BME280;42018;48.588;10.836;2023-05-25T06:12:10;97159.81;;;13.35;62.33
56142;BME280;42018;48.588;10.836;2023-05-25T06:14:55;97161.06;;;13.48;61.88
56142;BME280;42018;48.588;10.836;2023-05-25T06:17:41;97163.22;;;13.40;62.19
56142;BME280;42018;48.588;10.836;2023-05-25T06:20:29;97164.53;;;13.48;62.03
56142;BME280;42018;48.588;10.836;2023-05-25T06:23:17;97171.97;;;13.51;62.07
56142;BME280;42018;48.588;10.836;2023-05-25T06:26:03;97175.13;;;13.58;62.12
56142;BME280;42018;48.588;10.836;2023-05-25T06:28:52;97171.47;;;13.49;61.84
56142;BME280;42018;48.588;10.836;2023-05-25T06:31:39;97173.09;;;13.45;61.83
56142;BME280;42018;48.588;10.836;2023-05-25T06:34:30;97185.53;;;13.60;61.68
56142;BME280;42018;48.588;10.836;2023-05-25T06:37:16;97181.28;;;13.54;61.09
56142;BME280;42018;48.588;10.836;2023-05-25T06:40:09;97189.38;;;13.28;61.00
56142;BME280;42018;48.588;10.836;2023-05-25T06:42:55;97189.59;;;13.42;61.71
56142;BME280;42018;48.588;10.836;2023-05-25T06:45:40;97189.84;;;13.46;61.84
56142;BME280;42018;48.588;10.836;2023-05-25T06:48:26;97190.63;;;13.41;61.28
56142;BME280;42018;48.588;10.836;2023-05-25T06:51:11;97190.31;;;13.63;60.92
56142;BME280;42018;48.588;10.836;2023-05-25T06:56:41;97193.19;;;13.77;60.70
56142;BME280;42018;48.588;10.836;2023-05-25T06:59:29;97199.59;;;13.65;60.98
56142;BME280;42018;48.588;10.836;2023-05-25T07:02:23;97197.19;;;13.74;60.48
56142;BME280;42018;48.588;10.836;2023-05-25T07:05:08;97199.25;;;13.82;60.66
56142;BME280;42018;48.588;10.836;2023-05-25T07:07:56;97192.84;;;13.88;60.15
56142;BME280;42018;48.588;10.836;2023-05-25T07:10:50;97188.53;;;13.93;60.31
56142;BME280;42018;48.588;10.836;2023-05-25T07:13:35;97190.63;;;14.01;60.18
56142;BME280;42018;48.588;10.836;2023-05-25T07:16:21;97194.38;;;14.00;59.95
56142;BME280;42018;48.588;10.836;2023-05-25T07:19:29;97197.03;;;14.00;59.83
56142;BME280;42018;48.588;10.836;2023-05-25T07:22:42;97200.91;;;14.18;59.88
56142;BME280;42018;48.588;10.836;2023-05-25T07:25:30;97194.19;;;14.25;60.26
56142;BME280;42018;48.588;10.836;2023-05-25T07:31:43;97202.06;;;14.41;59.14
56142;BME280;42018;48.588;10.836;2023-05-25T08:00:10;97209.41;;;15.65;57.74
56142;BME280;42018;48.588;10.836;2023-05-25T08:03:00;97212.00;;;15.75;56.97
56142;BME280;42018;48.588;10.836;2023-05-25T08:05:49;97209.94;;;15.91;57.16
56142;BME280;42018;48.588;10.836;2023-05-25T08:08:36;97205.72;;;15.85;56.32
56142;BME280;42018;48.588;10.836;2023-05-25T08:29:10;97210.66;;;16.16;56.52
56142;BME280;42018;48.588;10.836;2023-05-25T08:32:23;97205.97;;;16.26;57.67
56142;BME280;42018;48.588;10.836;2023-05-25T08:41:06;97216.97;;;16.77;56.92
56142;BME280;42018;48.588;10.836;2023-05-25T08:43:52;97217.47;;;16.79;56.17
56142;BME280;42018;48.588;10.836;2023-05-25T08:46:37;97221.59;;;16.90;56.17
56142;BME280;42018;48.588;10.836;2023-05-25T08:49:33;97220.38;;;16.96;56.01
56142;BME280;42018;48.588;10.836;2023-05-25T08:52:39;97216.84;;;17.14;55.32
56142;BME280;42018;48.588;10.836;2023-05-25T08:55:32;97208.19;;;17.04;56.58
56142;BME280;42018;48.588;10.836;2023-05-25T08:58:31;97215.47;;;17.17;56.04
56142;BME280;42018;48.588;10.836;2023-05-25T09:01:28;97220.13;;;17.25;55.78
56142;BME280;42018;48.588;10.836;2023-05-25T09:04:17;97213.09;;;17.57;55.27
56142;BME280;42018;48.588;10.836;2023-05-25T09:07:10;97217.78;;;17.79;54.90
56142;BME280;42018;48.588;10.836;2023-05-25T09:09:59;97221.31;;;17.46;54.66
56142;BME280;42018;48.588;10.836;2023-05-25T09:13:14;97215.56;;;17.39;54.55
56142;BME280;42018;48.588;10.836;2023-05-25T09:16:08;97217.38;;;17.58;54.62
56142;BME280;42018;48.588;10.836;2023-05-25T09:24:14;97227.69;;;17.51;53.86
56142;BME280;42018;48.588;10.836;2023-05-25T09:27:01;97229.75;;;17.54;54.10
56142;BME280;42018;48.588;10.836;2023-05-25T09:30:06;97233.03;;;17.64;55.37
56142;BME280;42018;48.588;10.836;2023-05-25T09:33:08;97241.59;;;17.66;53.89
56142;BME280;42018;48.588;10.836;2023-05-25T09:35:56;97236.81;;;17.50;54.47
56142;BME280;42018;48.588;10.836;2023-05-25T09:58:56;97251.22;;;17.95;53.96
56142;BME280;42018;48.588;10.836;2023-05-25T10:01:42;97251.03;;;18.28;53.51
56142;BME280;42018;48.588;10.836;2023-05-25T10:04:42;97248.88;;;18.52;52.91
56142;BME280;42018;48.588;10.836;2023-05-25T10:07:33;97251.91;;;18.73;52.42
56142;BME280;42018;48.588;10.836;2023-05-25T10:10:30;97258.44;;;18.81;51.92
56142;BME280;42018;48.588;10.836;2023-05-25T10:13:28;97257.41;;;18.68;51.81
56142;BME280;42018;48.588;10.836;2023-05-25T10:16:17;97257.84;;;18.84;52.06
56142;BME280;42018;48.588;10.836;2023-05-25T10:19:14;97254.97;;;18.80;52.29
56142;BME280;42018;48.588;10.836;2023-05-25T10:22:18;97252.03;;;18.90;51.81
56142;BME280;42018;48.588;10.836;2023-05-25T10:25:31;97250.81;;;18.74;51.70
56142;BME280;42018;48.588;10.836;2023-05-25T10:28:30;97246.16;;;18.88;51.27
56142;BME280;42018;48.588;10.836;2023-05-25T10:31:17;97252.84;;;19.22;51.26
56142;BME280;42018;48.588;10.836;2023-05-25T10:34:03;97242.84;;;19.45;50.58
56142;BME280;42018;48.588;10.836;2023-05-25T10:36:49;97246.88;;;19.25;49.95
56142;BME280;42018;48.588;10.836;2023-05-25T10:39:40;97242.47;;;19.38;51.57
56142;BME280;42018;48.588;10.836;2023-05-25T10:42:27;97257.56;;;19.48;50.48
56142;BME280;42018;48.588;10.836;2023-05-25T10:45:14;97252.84;;;19.53;50.12
56142;BME280;42018;48.588;10.836;2023-05-25T10:48:00;97243.41;;;19.65;50.29
56142;BME280;42018;48.588;10.836;2023-05-25T10:50:49;97244.22;;;19.65;49.46
56142;BME280;42018;48.588;10.836;2023-05-25T10:53:35;97253.69;;;19.63;49.47
56142;BME280;42018;48.588;10.836;2023-05-25T10:56:20;97252.03;;;19.53;49.92
56142;BME280;42018;48.588;10.836;2023-05-25T10:59:11;97239.56;;;19.57;49.68
56142;BME280;42018;48.588;10.836;2023-05-25T11:02:05;97244.88;;;19.79;50.62
56142;BME280;42018;48.588;10.836;2023-05-25T11:08:11;97242.38;;;19.92;50.52
56142;BME280;42018;48.588;10.836;2023-05-25T11:10:57;97250.75;;;19.90;50.20
56142;BME280;42018;48.588;10.836;2023-05-25T11:13:44;97243.03;;;20.06;48.89
56142;BME280;42018;48.588;10.836;2023-05-25T11:16:31;97241.56;;;19.82;49.75
56142;BME280;42018;48.588;10.836;2023-05-25T11:19:41;97241.91;;;19.98;48.91
56142;BME280;42018;48.588;10.836;2023-05-25T11:22:34;97234.53;;;20.21;49.31
56142;BME280;42018;48.588;10.836;2023-05-25T11:25:41;97232.00;;;20.25;47.57
56142;BME280;42018;48.588;10.836;2023-05-25T11:28:30;97226.63;;;20.42;49.50
56142;BME280;42018;48.588;10.836;2023-05-25T11:31:30;97223.28;;;20.63;47.67
56142;BME280;42018;48.588;10.836;2023-05-25T11:34:16;97226.00;;;20.71;47.40
56142;BME280;42018;48.588;10.836;2023-05-25T11:37:03;97224.19;;;21.01;46.40
56142;BME280;42018;48.588;10.836;2023-05-25T11:39:51;97219.50;;;21.28;46.39
56142;BME280;42018;48.588;10.836;2023-05-25T11:42:44;97213.56;;;21.52;45.68
56142;BME280;42018;48.588;10.836;2023-05-25T11:45:33;97209.56;;;21.58;44.82
56142;BME280;42018;48.588;10.836;2023-05-25T11:48:52;97212.47;;;22.04;45.12
56142;BME280;42018;48.588;10.836;2023-05-25T11:51:49;97217.66;;;22.17;44.87
56142;BME280;42018;48.588;10.836;2023-05-25T11:54:34;97218.63;;;22.13;45.20
56142;BME280;42018;48.588;10.836;2023-05-25T11:57:21;97214.00;;;22.13;44.71
56142;BME280;42018;48.588;10.836;2023-05-25T12:00:23;97212.25;;;21.67;44.32
56142;BME280;42018;48.588;10.836;2023-05-25T12:03:31;97209.56;;;22.38;45.67
56142;BME280;42018;48.588;10.836;2023-05-25T12:06:42;97212.06;;;22.43;45.11
56142;BME280;42018;48.588;10.836;2023-05-25T12:09:28;97212.66;;;22.28;44.45
56142;BME280;42018;48.588;10.836;2023-05-25T12:12:13;97205.41;;;22.41;43.45
56142;BME280;42018;48.588;10.836;2023-05-25T12:14:59;97204.44;;;22.91;43.50
56142;BME280;42018;48.588;10.836;2023-05-25T12:17:44;97208.16;;;23.20;42.03
56142;BME280;42018;48.588;10.836;2023-05-25T12:20:30;97203.25;;;23.01;42.19
56142;BME280;42018;48.588;10.836;2023-05-25T12:23:16;97199.28;;;23.31;41.75
56142;BME280;42018;48.588;10.836;2023-05-25T12:26:08;97187.19;;;22.83;42.13
56142;BME280;42018;48.588;10.836;2023-05-25T12:29:06;97192.03;;;22.44;42.87
56142;BME280;42018;48.588;10.836;2023-05-25T12:31:52;97193.28;;;22.26;43.42
56142;BME280;42018;48.588;10.836;2023-05-25T12:34:37;97187.97;;;22.71;43.10
56142;BME280;42018;48.588;10.836;2023-05-25T12:37:22;97191.56;;;22.76;43.71
56142;BME280;42018;48.588;10.836;2023-05-25T12:40:18;97191.28;;;22.56;42.49
56142;BME280;42018;48.588;10.836;2023-05-25T12:43:04;97186.53;;;22.20;43.00
56142;BME280;42018;48.588;10.836;2023-05-25T12:45:50;97197.16;;;22.91;42.29
56142;BME280;42018;48.588;10.836;2023-05-25T12:48:35;97202.00;;;22.65;42.40
56142;BME280;42018;48.588;10.836;2023-05-25T12:51:21;97201.69;;;23.00;42.77
56142;BME280;42018;48.588;10.836;2023-05-25T12:54:06;97195.00;;;23.30;41.03
56142;BME280;42018;48.588;10.836;2023-05-25T12:56:53;97189.81;;;23.50;40.85
56142;BME280;42018;48.588;10.836;2023-05-25T12:59:40;97183.16;;;23.72;40.45
56142;BME280;42018;48.588;10.836;2023-05-25T13:02:26;97203.44;;;23.41;41.18
56142;BME280;42018;48.588;10.836;2023-05-25T13:05:26;97185.75;;;23.93;40.47
56142;BME280;42018;48.588;10.836;2023-05-25T13:08:12;97186.31;;;23.98;39.77
56142;BME280;42018;48.588;10.836;2023-05-25T13:10:57;97180.91;;;23.49;40.92
56142;BME280;42018;48.588;10.836;2023-05-25T13:13:44;97183.59;;;22.79;41.60
56142;BME280;42018;48.588;10.836;2023-05-25T13:16:31;97182.13;;;23.15;40.92
56142;BME280;42018;48.588;10.836;2023-05-25T13:19:18;97179.22;;;23.57;40.03
56142;BME280;42018;48.588;10.836;2023-05-25T13:22:04;97185.50;;;23.61;40.85
56142;BME280;42018;48.588;10.836;2023-05-25T13:24:50;97171.16;;;24.09;39.56
56142;BME280;42018;48.588;10.836;2023-05-25T13:27:36;97168.56;;;24.01;38.58
56142;BME280;42018;48.588;10.836;2023-05-25T13:30:22;97164.97;;;24.09;38.62
56142;BME280;42018;48.588;10.836;2023-05-25T13:33:07;97175.13;;;24.68;38.52
56142;BME280;42018;48.588;10.836;2023-05-25T13:35:53;97169.59;;;24.08;38.63
56142;BME280;42018;48.588;10.836;2023-05-25T13:39:07;97163.72;;;23.94;37.61
56142;BME280;42018;48.588;10.836;2023-05-25T13:42:06;97162.84;;;24.43;38.58
56142;BME280;42018;48.588;10.836;2023-05-25T13:44:57;97163.53;;;24.83;37.84
56142;BME280;42018;48.588;10.836;2023-05-25T13:47:43;97163.97;;;24.42;38.31
56142;BME280;42018;48.588;10.836;2023-05-25T13:50:28;97160.88;;;24.55;37.24
56142;BME280;42018;48.588;10.836;2023-05-25T13:53:14;97157.13;;;24.60;37.69
56142;BME280;42018;48.588;10.836;2023-05-25T13:56:00;97161.56;;;24.68;37.86
56142;BME280;42018;48.588;10.836;2023-05-25T13:58:45;97165.44;;;24.67;38.62
56142;BME280;42018;48.588;10.836;2023-05-25T14:01:31;97162.50;;;24.88;37.48
56142;BME280;42018;48.588;10.836;2023-05-25T14:04:17;97156.47;;;24.51;37.43
56142;BME280;42018;48.588;10.836;2023-05-25T14:07:02;97158.44;;;24.38;36.82
56142;BME280;42018;48.588;10.836;2023-05-25T14:10:00;97153.44;;;24.68;37.31
56142;BME280;42018;48.588;10.836;2023-05-25T14:12:46;97157.41;;;24.71;37.61
56142;BME280;42018;48.588;10.836;2023-05-25T14:15:31;97156.31;;;24.31;37.62
56142;BME280;42018;48.588;10.836;2023-05-25T14:21:58;97148.28;;;24.63;37.33
56142;BME280;42018;48.588;10.836;2023-05-25T14:24:44;97142.31;;;24.42;37.76
56142;BME280;42018;48.588;10.836;2023-05-25T14:27:28;97155.69;;;24.10;37.15
56142;BME280;42018;48.588;10.836;2023-05-25T14:30:15;97155.81;;;24.13;37.86
56142;BME280;42018;48.588;10.836;2023-05-25T14:35:46;97144.69;;;24.31;37.46
56142;BME280;42018;48.588;10.836;2023-05-25T14:38:32;97149.03;;;24.20;38.22
56142;BME280;42018;48.588;10.836;2023-05-25T14:41:20;97141.03;;;24.39;37.87
56142;BME280;42018;48.588;10.836;2023-05-25T14:44:17;97137.81;;;24.33;37.35
56142;BME280;42018;48.588;10.836;2023-05-25T14:47:02;97141.84;;;23.99;36.91
56142;BME280;42018;48.588;10.836;2023-05-25T14:49:54;97137.09;;;24.08;38.29
56142;BME280;42018;48.588;10.836;2023-05-25T14:52:40;97134.84;;;24.38;37.92
56142;BME280;42018;48.588;10.836;2023-05-25T14:55:26;97137.88;;;24.49;36.96
56142;BME280;42018;48.588;10.836;2023-05-25T14:58:11;97141.72;;;24.48;36.31
56142;BME280;42018;48.588;10.836;2023-05-25T15:00:57;97146.69;;;24.46;37.22
56142;BME280;42018;48.588;10.836;2023-05-25T15:03:50;97152.88;;;24.47;37.62
56142;BME280;42018;48.588;10.836;2023-05-25T15:06:36;97149.22;;;24.27;36.61
56142;BME280;42018;48.588;10.836;2023-05-25T15:09:23;97149.66;;;24.29;37.73
56142;BME280;42018;48.588;10.836;2023-05-25T15:12:08;97147.78;;;24.17;37.39
56142;BME280;42018;48.588;10.836;2023-05-25T15:14:54;97153.22;;;24.05;36.80
56142;BME280;42018;48.588;10.836;2023-05-25T15:17:39;97146.25;;;24.04;36.67
56142;BME280;42018;48.588;10.836;2023-05-25T15:20:25;97146.03;;;23.97;37.02
56142;BME280;42018;48.588;10.836;2023-05-25T15:23:10;97149.13;;;23.71;37.78
56142;BME280;42018;48.588;10.836;2023-05-25T15:25:54;97146.63;;;23.65;38.18
56142;BME280;42018;48.588;10.836;2023-05-25T15:28:42;97154.88;;;23.69;37.91
56142;BME280;42018;48.588;10.836;2023-05-25T15:31:28;97144.03;;;23.57;38.46
56142;BME280;42018;48.588;10.836;2023-05-25T15:34:13;97145.06;;;23.28;37.88
56142;BME280;42018;48.588;10.836;2023-05-25T15:36:59;97136.28;;;23.55;37.82
56142;BME280;42018;48.588;10.836;2023-05-25T15:39:45;97141.19;;;23.65;38.57
56142;BME280;42018;48.588;10.836;2023-05-25T15:42:30;97142.91;;;23.82;38.13
56142;BME280;42018;48.588;10.836;2023-05-25T15:45:15;97140.81;;;24.04;38.82
56142;BME280;42018;48.588;10.836;2023-05-25T15:48:01;97143.16;;;23.77;37.54
56142;BME280;42018;48.588;10.836;2023-05-25T15:50:47;97137.84;;;23.69;38.03
56142;BME280;42018;48.588;10.836;2023-05-25T15:53:36;97134.16;;;23.73;37.55
56142;BME280;42018;48.588;10.836;2023-05-25T15:56:21;97126.91;;;23.77;38.43
56142;BME280;42018;48.588;10.836;2023-05-25T15:59:07;97134.69;;;23.79;38.61
56142;BME280;42018;48.588;10.836;2023-05-25T16:01:53;97130.84;;;23.80;38.59
56142;BME280;42018;48.588;10.836;2023-05-25T16:04:41;97130.03;;;23.92;37.66
56142;BME280;42018;48.588;10.836;2023-05-25T16:07:26;97124.38;;;23.97;37.81
56142;BME280;42018;48.588;10.836;2023-05-25T16:10:12;97124.44;;;23.84;36.89
56142;BME280;42018;48.588;10.836;2023-05-25T16:13:00;97129.50;;;23.61;37.98
56142;BME280;42018;48.588;10.836;2023-05-25T16:15:45;97135.25;;;23.48;37.70
56142;BME280;42018;48.588;10.836;2023-05-25T16:18:31;97122.63;;;23.64;37.71